createdAt,value
2019-03-20T00:01:07.956Z,107.13
2019-03-20T00:03:37.608Z,103.13
2019-03-20T00:06:07.151Z,111.03
2019-03-20T00:08:37.624Z,90.93
2019-03-20T00:11:07.184Z,90.50
2019-03-20T00:13:36.757Z,83.50
2019-03-20T00:16:06.314Z,80.97
2019-03-20T00:18:35.873Z,81.07
2019-03-20T00:21:05.468Z,80.87
2019-03-20T00:23:35.025Z,76.47
2019-03-20T00:26:04.959Z,78.40
2019-03-20T00:28:34.502Z,75.63
2019-03-20T00:31:04.068Z,69.60
2019-03-20T00:33:33.646Z,77.97
2019-03-20T00:36:03.184Z,73.23
2019-03-20T00:38:33.941Z,75.73
2019-03-20T00:41:03.505Z,86.67
2019-03-20T00:43:33.065Z,83.97
2019-03-20T00:46:02.650Z,73.53
2019-03-20T00:48:33.193Z,78.70
2019-03-20T00:51:02.775Z,67.57
2019-03-20T00:53:32.327Z,74.47
2019-03-20T00:56:01.887Z,72.70
2019-03-20T00:58:31.909Z,63.30
2019-03-20T01:01:01.456Z,64.10
2019-03-20T01:03:31.026Z,68.77
2019-03-20T01:06:00.880Z,67.63
2019-03-20T01:08:30.457Z,72.43
2019-03-20T01:11:00.408Z,63.80
2019-03-20T01:13:29.959Z,66.77
2019-03-20T01:15:59.528Z,57.40
2019-03-20T01:18:29.071Z,57.07
2019-03-20T01:20:58.635Z,44.07
2019-03-20T01:23:29.022Z,46.93
2019-03-20T01:25:58.575Z,38.43
2019-03-20T01:28:28.130Z,38.23
2019-03-20T01:31:10.347Z,40.17
2019-03-20T01:33:39.908Z,40.87
2019-03-20T01:36:09.511Z,43.97
2019-03-20T01:38:39.075Z,52.97
2019-03-20T01:41:08.637Z,38.30
2019-03-20T01:43:38.178Z,39.80
2019-03-20T01:46:07.736Z,39.10
2019-03-20T01:48:37.322Z,43.87
2019-03-20T01:51:18.334Z,32.17
2019-03-20T01:53:48.013Z,53.07
2019-03-20T01:56:17.573Z,61.77
2019-03-20T01:58:48.214Z,49.13
2019-03-20T02:01:17.770Z,48.30
2019-03-20T02:03:47.315Z,67.07
2019-03-20T02:06:16.899Z,58.43
2019-03-20T02:08:46.438Z,75.70
2019-03-20T02:11:16.005Z,93.70
2019-03-20T02:13:45.580Z,88.33
2019-03-20T02:16:15.143Z,98.87
2019-03-20T02:18:44.929Z,75.77
2019-03-20T02:21:14.758Z,91.50
2019-03-20T02:23:44.319Z,84.17
2019-03-20T02:26:14.236Z,103.23
2019-03-20T02:28:43.772Z,95.50
2019-03-20T02:31:13.360Z,96.20
2019-03-20T02:33:42.934Z,101.63
2019-03-20T02:36:12.520Z,108.70
2019-03-20T02:38:42.074Z,103.10
2019-03-20T02:44:05.785Z,101.20
2019-03-20T02:46:35.321Z,98.23
2019-03-20T02:49:04.889Z,92.67
2019-03-20T02:51:34.553Z,104.03
2019-03-20T02:54:04.122Z,94.37
2019-03-20T02:56:34.611Z,88.13
2019-03-20T02:59:04.155Z,83.30
2019-03-20T03:01:33.709Z,81.80
2019-03-20T03:04:03.296Z,82.23
2019-03-20T03:06:32.828Z,76.80
2019-03-20T03:09:02.436Z,72.77
2019-03-20T03:11:32.090Z,71.83
2019-03-20T03:14:01.648Z,69.37
2019-03-20T03:16:31.564Z,76.30
2019-03-20T03:19:01.111Z,66.10
2019-03-20T03:21:30.694Z,68.47
2019-03-20T03:24:00.235Z,71.87
2019-03-20T03:26:29.820Z,83.27
2019-03-20T03:28:59.339Z,75.33
2019-03-20T03:31:28.987Z,71.67
2019-03-20T03:33:58.575Z,67.83
2019-03-20T03:36:28.113Z,82.27
2019-03-20T03:38:57.672Z,91.07
2019-03-20T03:41:27.279Z,79.80
2019-03-20T03:43:56.834Z,97.50
2019-03-20T03:46:26.422Z,71.90
2019-03-20T03:48:55.964Z,83.20
2019-03-20T03:51:25.519Z,76.17
2019-03-20T03:53:55.090Z,75.70
2019-03-20T03:56:24.636Z,73.47
2019-03-20T03:58:55.270Z,73.90
2019-03-20T04:01:24.821Z,71.93
2019-03-20T04:03:54.360Z,82.30
2019-03-20T04:06:34.930Z,76.43
2019-03-20T04:08:55.092Z,82.50
2019-03-20T04:11:24.666Z,77.73
2019-03-20T04:13:55.615Z,86.40
2019-03-20T04:16:25.206Z,92.82
2019-03-20T04:18:54.743Z,87.20
2019-03-20T04:21:24.307Z,75.80
2019-03-20T04:23:54.221Z,70.10
2019-03-20T04:26:23.798Z,72.77
2019-03-20T04:28:53.359Z,77.47
2019-03-20T04:31:22.917Z,79.10
2019-03-20T04:33:52.465Z,70.73
2019-03-20T04:36:22.027Z,68.00
2019-03-20T04:38:51.586Z,70.40
2019-03-20T04:41:21.160Z,75.27
2019-03-20T04:43:51.079Z,86.00
2019-03-20T04:46:20.847Z,76.70
2019-03-20T04:48:50.390Z,77.77
2019-03-20T04:51:19.960Z,79.37
2019-03-20T04:53:49.524Z,96.40
2019-03-20T04:56:19.082Z,88.80
2019-03-20T04:58:49.980Z,101.23
2019-03-20T05:01:20.656Z,92.90
2019-03-20T05:03:50.370Z,79.97
2019-03-20T05:06:19.939Z,79.43
2019-03-20T05:08:49.475Z,79.80
2019-03-20T05:11:19.038Z,85.07
2019-03-20T05:13:48.587Z,90.03
2019-03-20T05:16:18.391Z,80.43
2019-03-20T05:18:48.271Z,98.63
2019-03-20T05:21:17.814Z,77.50
2019-03-20T05:23:47.396Z,78.77
2019-03-20T05:26:16.931Z,83.83
2019-03-20T05:28:46.509Z,87.60
2019-03-20T05:31:16.344Z,84.30
2019-03-20T05:33:45.908Z,131.67
2019-03-20T05:36:15.797Z,112.33
2019-03-20T05:38:45.361Z,126.50
2019-03-20T05:41:14.927Z,166.87
2019-03-20T05:43:44.478Z,173.27
2019-03-20T05:46:14.023Z,191.00
2019-03-20T05:48:43.930Z,177.30
2019-03-20T05:51:13.485Z,192.90
2019-03-20T05:53:43.946Z,204.27
2019-03-20T05:56:13.486Z,150.40
2019-03-20T05:58:43.392Z,116.00
2019-03-20T06:01:12.937Z,159.60
2019-03-20T06:03:42.577Z,177.23
2019-03-20T06:06:12.180Z,207.80
2019-03-20T06:08:41.737Z,212.50
2019-03-20T06:11:11.286Z,218.87
2019-03-20T06:13:41.149Z,215.00
2019-03-20T06:16:10.695Z,200.83
2019-03-20T06:18:40.574Z,199.73
2019-03-20T06:21:10.101Z,189.30
2019-03-20T06:23:39.642Z,188.80
2019-03-20T06:26:09.611Z,183.40
2019-03-20T06:28:39.250Z,191.77
2019-03-20T06:31:08.808Z,194.63
2019-03-20T06:33:38.377Z,185.13
2019-03-20T06:36:07.947Z,200.60
2019-03-20T06:38:37.478Z,197.57
2019-03-20T06:41:19.274Z,199.73
2019-03-20T06:43:48.819Z,193.17
2019-03-20T06:46:18.381Z,204.60
2019-03-20T06:48:47.938Z,204.77
2019-03-20T06:51:17.485Z,189.13
2019-03-20T06:53:47.016Z,193.80
2019-03-20T06:56:16.689Z,203.27
2019-03-20T06:58:46.259Z,187.13
2019-03-20T07:01:18.931Z,183.63
2019-03-20T07:04:07.198Z,186.33
2019-03-20T07:06:39.833Z,177.17
2019-03-20T07:09:18.596Z,150.63
2019-03-20T07:11:48.143Z,157.87
2019-03-20T07:14:17.695Z,145.63
2019-03-20T07:16:47.266Z,153.40
2019-03-20T07:19:16.816Z,143.93
2019-03-20T07:21:46.419Z,120.03
2019-03-20T07:24:35.336Z,120.00
2019-03-20T07:27:04.930Z,107.93
2019-03-20T07:29:34.466Z,110.47
2019-03-20T07:32:04.025Z,92.03
2019-03-20T07:34:33.581Z,116.13
2019-03-20T07:37:04.392Z,122.90
2019-03-20T07:39:33.992Z,134.00
2019-03-20T07:42:03.553Z,125.60
2019-03-20T07:44:33.105Z,147.47
2019-03-20T07:47:02.654Z,145.40
2019-03-20T07:49:32.217Z,133.47
2019-03-20T07:52:01.755Z,136.97
2019-03-20T07:54:31.409Z,137.97
2019-03-20T07:57:01.029Z,151.43
2019-03-20T07:59:30.557Z,135.87
2019-03-20T08:02:00.218Z,127.57
2019-03-20T08:04:30.120Z,131.37
2019-03-20T08:06:59.655Z,118.53
2019-03-20T08:09:29.263Z,129.43
2019-03-20T08:11:58.870Z,123.20
2019-03-20T08:14:28.483Z,135.23
2019-03-20T08:16:58.004Z,109.23
2019-03-20T08:19:27.563Z,103.67
2019-03-20T08:21:57.699Z,102.50
2019-03-20T08:24:27.231Z,116.47
2019-03-20T08:26:56.792Z,94.83
2019-03-20T08:29:26.339Z,100.80
2019-03-20T08:31:55.980Z,81.80
2019-03-20T08:34:25.543Z,89.17
2019-03-20T08:36:55.076Z,86.53
2019-03-20T08:39:24.673Z,47.57
2019-03-20T08:41:54.206Z,77.50
2019-03-20T08:44:23.746Z,84.70
2019-03-20T08:46:53.278Z,90.57
2019-03-20T08:49:22.814Z,83.00
2019-03-20T08:51:52.400Z,93.30
2019-03-20T08:54:22.047Z,82.57
2019-03-20T08:56:51.586Z,76.30
2019-03-20T08:59:21.356Z,78.20
2019-03-20T09:01:50.895Z,58.40
2019-03-20T09:04:20.818Z,55.90
2019-03-20T09:06:50.454Z,51.63
2019-03-20T09:09:20.073Z,46.33
2019-03-20T09:11:50.010Z,47.87
2019-03-20T09:14:19.584Z,50.43
2019-03-20T09:16:49.167Z,54.90
2019-03-20T09:19:18.723Z,59.30
2019-03-20T09:21:48.285Z,57.63
2019-03-20T09:24:18.830Z,57.90
2019-03-20T09:26:48.374Z,50.00
2019-03-20T09:29:19.018Z,55.63
2019-03-20T09:31:48.626Z,59.00
2019-03-20T09:34:18.164Z,60.03
2019-03-20T09:36:47.714Z,68.37
2019-03-20T09:39:17.263Z,69.57
2019-03-20T09:41:46.849Z,63.00
2019-03-20T09:44:16.395Z,60.07
2019-03-20T09:46:46.019Z,51.30
2019-03-20T09:49:15.544Z,60.93
2019-03-20T09:51:45.092Z,63.27
2019-03-20T09:54:14.644Z,62.00
2019-03-20T09:56:44.178Z,63.77
2019-03-20T09:59:13.760Z,64.60
2019-03-20T10:01:43.286Z,71.47
2019-03-20T10:04:12.823Z,62.77
2019-03-20T10:06:42.367Z,66.57
2019-03-20T10:09:11.924Z,66.40
2019-03-20T10:11:41.544Z,52.67
2019-03-20T10:14:11.078Z,59.93
2019-03-20T10:16:40.617Z,47.87
2019-03-20T10:19:10.102Z,50.60
2019-03-20T10:21:40.773Z,53.10
2019-03-20T10:24:12.164Z,46.33
2019-03-20T10:26:41.701Z,51.37
2019-03-20T10:29:11.359Z,46.63
2019-03-20T10:31:40.925Z,43.23
2019-03-20T10:34:10.481Z,42.47
2019-03-20T10:36:40.847Z,49.57
2019-03-20T10:39:11.811Z,46.73
2019-03-20T10:41:41.592Z,47.50
2019-03-20T10:44:11.301Z,50.47
2019-03-20T10:46:40.855Z,47.17
2019-03-20T10:49:10.438Z,39.23
2019-03-20T10:51:39.978Z,43.10
2019-03-20T10:54:09.646Z,34.43
2019-03-20T10:56:39.544Z,39.83
2019-03-20T10:59:09.094Z,42.47
2019-03-20T11:01:42.803Z,46.40
2019-03-20T11:04:10.870Z,50.10
2019-03-20T11:06:40.427Z,44.97
2019-03-20T11:09:18.325Z,49.93
2019-03-20T11:11:41.131Z,43.13
2019-03-20T11:14:10.734Z,46.27
2019-03-20T11:16:40.288Z,48.83
2019-03-20T11:19:09.825Z,50.73
2019-03-20T11:21:39.375Z,42.53
2019-03-20T11:24:08.921Z,40.20
2019-03-20T11:26:38.480Z,39.40
2019-03-20T11:29:08.023Z,129.73
2019-03-20T11:31:37.573Z,57.53
2019-03-20T11:34:07.133Z,41.30
2019-03-20T11:36:36.682Z,31.60
2019-03-20T11:39:08.786Z,35.63
2019-03-20T11:41:38.334Z,38.67
2019-03-20T11:44:07.880Z,130.30
2019-03-20T11:46:37.437Z,99.47
2019-03-20T11:49:06.989Z,74.43
2019-03-20T11:51:36.558Z,28.47
2019-03-20T11:54:06.108Z,31.57
2019-03-20T11:56:35.660Z,29.53
2019-03-20T11:59:05.203Z,37.27
2019-03-20T12:01:34.734Z,32.60
2019-03-20T12:04:04.310Z,26.10
2019-03-20T12:06:33.867Z,31.90
2019-03-20T12:09:04.210Z,26.97
2019-03-20T12:11:45.179Z,24.20
2019-03-20T12:14:04.938Z,24.90
2019-03-20T12:16:34.571Z,24.13
2019-03-20T12:19:04.116Z,28.43
2019-03-20T12:21:33.722Z,33.43
2019-03-20T12:24:03.297Z,33.47
2019-03-20T12:26:32.861Z,32.20
2019-03-20T12:29:02.425Z,29.07
2019-03-20T12:31:31.967Z,31.90
2019-03-20T12:34:02.345Z,22.00
2019-03-20T12:36:33.072Z,25.90
2019-03-20T12:39:03.037Z,22.90
2019-03-20T12:41:34.995Z,29.60
2019-03-20T12:44:04.546Z,21.97
2019-03-20T12:46:41.509Z,25.23
2019-03-20T12:49:05.274Z,27.43
2019-03-20T12:51:34.813Z,26.33
2019-03-20T12:54:04.381Z,26.67
2019-03-20T12:56:33.909Z,28.33
2019-03-20T12:59:03.475Z,25.10
2019-03-20T13:01:33.012Z,28.10
2019-03-20T13:04:02.583Z,29.33
2019-03-20T13:06:32.273Z,27.83
2019-03-20T13:09:03.640Z,32.23
2019-03-20T13:11:33.033Z,24.33
2019-03-20T13:14:02.600Z,27.73
2019-03-20T13:16:32.139Z,25.53
2019-03-20T13:19:01.688Z,25.57
2019-03-20T13:21:32.322Z,28.10
2019-03-20T13:24:01.876Z,25.13
2019-03-20T13:26:31.524Z,38.93
2019-03-20T13:29:02.069Z,28.33
2019-03-20T13:31:31.980Z,31.17
2019-03-20T13:34:01.528Z,28.30
2019-03-20T13:36:31.399Z,27.57
2019-03-20T13:39:00.949Z,26.63
2019-03-20T13:41:32.182Z,26.23
2019-03-20T13:44:02.091Z,27.33
2019-03-20T13:46:31.657Z,28.33
2019-03-20T13:49:01.236Z,44.47
2019-03-20T13:51:30.750Z,50.17
2019-03-20T13:54:00.318Z,30.00
2019-03-20T13:56:29.971Z,28.57
2019-03-20T13:59:18.906Z,28.43
2019-03-20T14:01:48.455Z,31.30
2019-03-20T14:04:18.025Z,32.13
2019-03-20T14:06:47.908Z,31.10
2019-03-20T14:09:17.566Z,29.97
2019-03-20T14:11:47.140Z,28.07
2019-03-20T14:14:16.770Z,29.70
2019-03-20T14:16:46.257Z,24.63
2019-03-20T14:19:15.904Z,33.13
2019-03-20T14:21:45.444Z,33.47
2019-03-20T14:24:15.074Z,36.33
2019-03-20T14:26:44.943Z,28.67
2019-03-20T14:29:14.870Z,41.27
2019-03-20T14:31:44.410Z,36.17
2019-03-20T14:34:13.946Z,37.93
2019-03-20T14:36:43.525Z,42.07
2019-03-20T14:39:13.098Z,88.80
2019-03-20T14:41:42.633Z,100.30
2019-03-20T14:44:13.214Z,61.30
2019-03-20T14:46:42.742Z,47.90
2019-03-20T14:49:12.306Z,51.57
2019-03-20T14:51:41.860Z,57.80
2019-03-20T14:54:11.436Z,49.83
2019-03-20T14:56:41.010Z,41.30
2019-03-20T14:59:10.920Z,39.23
2019-03-20T15:01:40.471Z,27.30
2019-03-20T15:04:09.998Z,31.00
2019-03-20T15:06:39.546Z,25.80
2019-03-20T15:09:10.871Z,26.17
2019-03-20T15:11:40.403Z,29.43
2019-03-20T15:14:09.966Z,27.90
2019-03-20T15:16:39.441Z,29.40
2019-03-20T15:19:08.998Z,26.50
2019-03-20T15:21:38.630Z,27.70
2019-03-20T15:24:08.163Z,31.93
2019-03-20T15:26:38.071Z,29.57
2019-03-20T15:29:08.741Z,37.57
2019-03-20T15:31:39.219Z,38.83
2019-03-20T15:34:08.760Z,34.80
2019-03-20T15:36:38.703Z,35.33
2019-03-20T15:39:08.285Z,38.90
2019-03-20T15:41:37.813Z,61.43
2019-03-20T15:44:07.374Z,29.53
2019-03-20T15:46:36.907Z,28.17
2019-03-20T15:49:06.585Z,38.13
2019-03-20T15:51:36.137Z,29.00
2019-03-20T15:54:06.675Z,96.30
2019-03-20T15:56:36.297Z,29.63
2019-03-20T15:59:06.147Z,26.67
2019-03-20T16:01:35.818Z,23.60
2019-03-20T16:04:06.043Z,24.00
2019-03-20T16:06:35.574Z,124.87
2019-03-20T16:09:07.545Z,50.03
2019-03-20T16:11:37.461Z,64.97
2019-03-20T16:14:07.113Z,72.57
2019-03-20T16:16:36.668Z,30.37
2019-03-20T16:19:06.209Z,45.30
2019-03-20T16:21:35.774Z,28.53
2019-03-20T16:24:06.253Z,61.97
2019-03-20T16:26:35.801Z,54.83
2019-03-20T16:29:05.369Z,42.73
2019-03-20T16:31:35.010Z,60.70
2019-03-20T16:34:04.649Z,78.07
2019-03-20T16:36:34.567Z,115.43
2019-03-20T16:39:07.154Z,178.70
2019-03-20T16:41:37.036Z,47.43
2019-03-20T16:44:06.574Z,49.63
2019-03-20T16:46:36.475Z,35.27
2019-03-20T16:49:06.009Z,32.93
2019-03-20T16:51:35.604Z,37.40
2019-03-20T16:54:05.365Z,30.07
2019-03-20T16:56:34.918Z,32.67
2019-03-20T16:59:04.480Z,33.63
2019-03-20T17:01:34.020Z,46.33
2019-03-20T17:04:03.871Z,62.23
2019-03-20T17:06:33.731Z,223.33
2019-03-20T17:09:03.597Z,195.93
2019-03-20T17:11:38.326Z,228.13
2019-03-20T17:14:04.700Z,107.57
2019-03-20T17:16:34.283Z,65.97
2019-03-20T17:19:03.821Z,65.97
2019-03-20T17:21:33.363Z,60.73
2019-03-20T17:24:02.921Z,46.60
2019-03-20T17:26:32.463Z,60.43
2019-03-20T17:29:08.876Z,112.60
2019-03-20T17:31:34.078Z,106.73
2019-03-20T17:34:03.651Z,276.83
2019-03-20T17:36:33.313Z,643.03
2019-03-20T17:39:03.244Z,1161.37
2019-03-20T17:41:36.803Z,1289.47
2019-03-20T17:44:05.127Z,1432.40
2019-03-20T17:46:34.730Z,1280.73
2019-03-20T17:49:04.674Z,871.67
2019-03-20T17:51:36.046Z,360.80
2019-03-20T17:54:05.992Z,193.67
2019-03-20T17:56:35.908Z,171.93
2019-03-20T17:59:05.461Z,225.87
2019-03-20T18:01:35.019Z,96.07
2019-03-20T18:04:04.567Z,73.23
2019-03-20T18:06:47.117Z,66.87
2019-03-20T18:09:17.542Z,63.17
2019-03-20T18:11:47.820Z,69.70
2019-03-20T18:14:18.866Z,104.00
2019-03-20T18:16:48.855Z,66.43
2019-03-20T18:19:18.414Z,61.87
2019-03-20T18:21:47.976Z,70.20
2019-03-20T18:24:17.775Z,103.93
2019-03-20T18:26:47.578Z,107.57
2019-03-20T18:29:17.515Z,96.57
2019-03-20T18:31:47.993Z,61.50
2019-03-20T18:34:17.550Z,51.27
2019-03-20T18:36:47.093Z,48.70
2019-03-20T18:39:16.723Z,48.40
2019-03-20T18:41:46.261Z,46.57
2019-03-20T18:44:16.814Z,49.53
2019-03-20T18:46:46.706Z,53.57
2019-03-20T18:49:16.623Z,53.33
2019-03-20T18:51:46.203Z,52.93
2019-03-20T18:54:15.848Z,58.70
2019-03-20T18:56:45.736Z,142.10
2019-03-20T18:59:15.319Z,193.53
2019-03-20T19:01:44.859Z,468.93
2019-03-20T19:04:16.925Z,734.83
2019-03-20T19:06:47.945Z,576.43
2019-03-20T19:09:18.868Z,447.40
2019-03-20T19:15:49.867Z,139.13
2019-03-20T19:21:42.345Z,75.47
2019-03-20T19:24:21.871Z,114.53
2019-03-20T19:26:55.484Z,146.53
2019-03-20T19:29:34.443Z,235.50
2019-03-20T19:32:10.868Z,150.63
2019-03-20T19:34:47.871Z,134.17
2019-03-20T19:37:28.890Z,104.27
2019-03-20T19:40:13.867Z,84.90
2019-03-20T19:42:49.879Z,96.40
2019-03-20T19:45:20.017Z,114.70
2019-03-20T19:47:56.357Z,90.80
2019-03-20T19:50:37.869Z,79.47
2019-03-20T19:53:13.579Z,93.87
2019-03-20T19:55:49.332Z,90.03
2019-03-20T19:58:25.093Z,95.17
2019-03-20T20:00:58.783Z,93.90
2019-03-20T20:03:29.836Z,78.10
2019-03-20T20:06:00.764Z,78.57
2019-03-20T20:08:34.569Z,110.60
2019-03-20T20:11:08.786Z,85.73
2019-03-20T20:13:45.150Z,91.47
2019-03-20T20:16:24.870Z,82.17
2019-03-20T20:19:06.872Z,84.97
2019-03-20T20:21:39.715Z,83.33
2019-03-20T20:24:13.069Z,68.23
2019-03-20T20:26:45.134Z,95.23
2019-03-20T20:29:19.349Z,69.43
2019-03-20T20:31:55.870Z,69.07
2019-03-20T20:34:49.386Z,65.80
2019-03-20T20:37:21.861Z,75.00
2019-03-20T20:39:58.870Z,63.17
2019-03-20T20:42:42.826Z,66.40
2019-03-20T20:45:17.313Z,63.07
2019-03-20T20:47:55.870Z,66.40
2019-03-20T20:50:33.324Z,71.00
2019-03-20T20:53:12.344Z,67.00
2019-03-20T20:55:46.765Z,77.13
2019-03-20T20:58:22.872Z,74.87
2019-03-20T21:00:57.878Z,84.13
2019-03-20T21:03:29.871Z,97.67
2019-03-20T21:06:07.873Z,89.03
2019-03-20T21:08:44.871Z,79.80
2019-03-20T21:11:16.252Z,90.17
2019-03-20T21:13:46.371Z,84.67
2019-03-20T21:16:16.799Z,98.10
2019-03-20T21:18:55.872Z,100.63
2019-03-20T21:21:31.372Z,101.80
2019-03-20T21:24:30.871Z,105.30
2019-03-20T21:27:07.877Z,118.83
2019-03-20T21:30:05.870Z,113.37
2019-03-20T21:32:54.282Z,115.90
2019-03-20T21:35:53.593Z,123.80
2019-03-20T21:38:29.874Z,129.73
2019-03-20T21:41:30.878Z,130.17
2019-03-20T21:44:34.883Z,131.23
2019-03-20T21:47:29.872Z,147.23
2019-03-20T21:50:21.871Z,144.60
2019-03-20T21:52:58.872Z,139.47
2019-03-20T21:55:53.871Z,140.53
2019-03-20T21:58:32.338Z,161.27
2019-03-20T22:01:14.744Z,156.20
2019-03-20T22:03:44.873Z,148.47
2019-03-20T22:06:50.310Z,150.87
2019-03-20T22:09:28.909Z,145.00
2019-03-20T22:12:24.348Z,146.83
2019-03-20T22:15:16.169Z,142.67
2019-03-20T22:18:12.398Z,151.50
2019-03-20T22:20:51.122Z,158.70
2019-03-20T22:23:50.218Z,132.67
2019-03-20T22:26:26.993Z,137.27
2019-03-20T22:29:17.081Z,142.17
2019-03-20T22:31:58.873Z,138.30
2019-03-20T22:34:38.105Z,122.50
2019-03-20T22:37:15.877Z,122.67
2019-03-20T22:40:16.880Z,133.00
2019-03-20T22:43:10.878Z,137.73
2019-03-20T22:46:15.875Z,153.73
2019-03-20T22:48:55.097Z,159.57
2019-03-20T22:52:03.513Z,154.07
2019-03-20T22:55:04.880Z,161.77
2019-03-20T22:57:45.429Z,167.47
2019-03-20T23:00:18.419Z,162.43
2019-03-20T23:03:09.873Z,173.10
2019-03-20T23:05:48.874Z,157.10
2019-03-20T23:08:30.348Z,158.27
2019-03-20T23:11:11.880Z,170.43
2019-03-20T23:13:50.354Z,161.27
2019-03-20T23:16:31.878Z,154.30
2019-03-20T23:19:09.530Z,163.23
2019-03-20T23:21:47.878Z,165.33
2019-03-20T23:24:25.334Z,172.30
2019-03-20T23:27:05.873Z,166.57
2019-03-20T23:29:45.877Z,164.60
2019-03-20T23:32:23.343Z,155.93
2019-03-20T23:35:07.875Z,158.00
2019-03-20T23:37:58.601Z,165.83
2019-03-20T23:40:29.878Z,154.83
2019-03-20T23:43:16.349Z,157.93
2019-03-20T23:45:50.360Z,155.13
2019-03-20T23:48:43.874Z,166.93
2019-03-20T23:51:22.343Z,148.63
2019-03-20T23:57:02.882Z,150.50
2019-03-20T23:59:44.307Z,152.73
